Time;durP1;ratioP1;P1;durP2;ratioP2;P2;SDS_P1;SDS_P2;PMS_P1;PMS_P2;Temp;Humidity;BMP_temperature;BMP_pressure;BME280_temperature;BME280_humidity;BME280_pressure;Samples;Min_cycle;Max_cycle;Signal;HPM_P1;HPM_P2
2023/01/07 00:02:00;;;;;;;1.80;1.70;;;;;;;11.00;71.45;96127.56;5073388;28;20642;-84
2023/01/07 00:04:27;;;;;;;2.70;1.80;;;;;;;10.95;71.28;96116.97;5093297;28;20196;-84
2023/01/07 00:06:53;;;;;;;2.20;2.00;;;;;;;10.95;71.17;96115.19;5079418;28;20208;-83
2023/01/07 00:09:21;;;;;;;3.23;2.07;;;;;;;10.92;71.46;96119.88;5064050;28;20206;-84
2023/01/07 00:11:47;;;;;;;2.20;2.00;;;;;;;10.93;71.17;96119.69;5087691;28;20239;-84
2023/01/07 00:14:14;;;;;;;2.40;2.20;;;;;;;10.97;71.10;96112.41;5072913;28;20196;-83
2023/01/07 00:16:41;;;;;;;1.80;1.70;;;;;;;10.96;70.85;96116.00;5077056;28;20204;-84
2023/01/07 00:19:11;;;;;;;1.80;1.70;;;;;;;10.95;70.71;96112.63;5092881;28;20192;-84
2023/01/07 00:21:38;;;;;;;2.20;2.00;;;;;;;10.96;70.63;96111.66;5091601;28;20216;-84
2023/01/07 00:24:06;;;;;;;1.80;1.70;;;;;;;10.97;70.34;96109.84;5093508;28;20207;-84
2023/01/07 00:26:35;;;;;;;2.03;1.87;;;;;;;11.00;70.54;96109.53;5091550;28;20196;-83
2023/01/07 00:29:02;;;;;;;2.63;2.10;;;;;;;10.99;70.48;96110.50;5072617;28;20766;-84
2023/01/07 00:31:32;;;;;;;3.27;2.00;;;;;;;10.99;70.93;96100.97;5073181;28;20231;-84
2023/01/07 00:34:08;;;;;;;2.37;2.10;;;;;;;10.98;70.67;96104.53;5056114;28;20208;-84
2023/01/07 00:36:37;;;;;;;2.43;2.20;;;;;;;10.96;70.74;96095.38;5054338;28;20266;-83
2023/01/07 00:39:05;;;;;;;2.40;2.20;;;;;;;10.96;70.65;96097.97;5072729;28;20201;-84
2023/01/07 00:41:32;;;;;;;2.30;2.10;;;;;;;10.96;70.53;96097.97;5081620;28;20249;-84
2023/01/07 00:43:59;;;;;;;2.30;2.07;;;;;;;10.96;70.86;96095.38;5097774;28;20226;-84
2023/01/07 00:46:26;;;;;;;2.20;2.00;;;;;;;10.98;70.78;96098.56;5089268;28;20224;-84
2023/01/07 00:48:52;;;;;;;2.17;2.03;;;;;;;10.97;70.32;96095.19;5076700;28;20201;-84
2023/01/07 00:51:19;;;;;;;2.50;2.30;;;;;;;10.94;70.62;96094.75;5079371;28;20291;-84
2023/01/07 00:53:46;;;;;;;2.60;2.40;;;;;;;10.94;70.86;96098.13;5097080;28;20203;-84
2023/01/07 00:56:14;;;;;;;2.67;2.40;;;;;;;10.93;70.47;96093.94;5091193;28;20219;-83
2023/01/07 00:58:42;;;;;;;2.40;1.93;;;;;;;10.90;70.61;96096.84;5076814;28;20193;-84
2023/01/07 01:01:11;;;;;;;2.50;2.30;;;;;;;10.85;71.15;96099.09;5080617;28;20192;-83
2023/01/07 01:03:38;;;;;;;2.20;2.00;;;;;;;10.87;71.34;96098.94;5078891;28;20224;-84
2023/01/07 01:06:07;;;;;;;1.93;1.83;;;;;;;10.87;70.94;96094.59;5077693;28;20197;-84
2023/01/07 01:08:33;;;;;;;2.50;2.17;;;;;;;10.86;70.83;96092.97;5076049;28;20859;-83
2023/01/07 01:11:03;;;;;;;4.83;2.23;;;;;;;10.84;71.08;96089.75;5089544;28;20212;-83
2023/01/07 01:13:30;;;;;;;2.13;2.00;;;;;;;10.85;70.90;96088.00;5100127;28;20258;-83
2023/01/07 01:15:56;;;;;;;2.43;2.10;;;;;;;10.85;70.58;96095.72;5090416;28;20200;-84
2023/01/07 01:18:24;;;;;;;1.90;1.80;;;;;;;10.85;70.51;96098.28;5076426;28;20197;-83
2023/01/07 01:20:51;;;;;;;2.50;2.30;;;;;;;10.88;70.40;96092.81;5083041;28;20192;-84
2023/01/07 01:23:17;;;;;;;2.80;2.00;;;;;;;10.89;70.23;96097.00;5096605;28;20598;-84
2023/01/07 01:25:43;;;;;;;2.33;2.13;;;;;;;10.88;70.29;96087.66;5088339;28;20216;-84
2023/01/07 01:28:10;;;;;;;1.97;1.87;;;;;;;10.89;69.90;96095.22;5075734;28;20797;-84
2023/01/07 01:30:36;;;;;;;2.37;2.17;;;;;;;10.87;70.07;96092.00;5093641;28;20212;-84
2023/01/07 01:33:03;;;;;;;1.80;1.70;;;;;;;10.89;69.88;96091.84;5082679;28;20216;-84
2023/01/07 01:35:30;;;;;;;1.93;1.83;;;;;;;10.92;70.13;96091.53;5091649;28;20196;-83
2023/01/07 01:37:59;;;;;;;2.03;1.83;;;;;;;10.89;69.88;96090.06;5095882;28;20199;-84
2023/01/07 01:40:28;;;;;;;2.30;2.10;;;;;;;10.89;69.74;96084.13;5080257;28;20726;-84
2023/01/07 01:42:55;;;;;;;2.30;2.10;;;;;;;10.88;69.77;96082.50;5085682;28;20258;-84
2023/01/07 01:45:21;;;;;;;1.90;1.80;;;;;;;10.86;69.82;96085.25;5095690;28;20223;-84
2023/01/07 01:47:52;;;;;;;2.20;2.00;;;;;;;10.85;69.85;96080.25;5082445;28;20208;-84
2023/01/07 01:50:23;;;;;;;2.77;1.70;;;;;;;10.83;69.49;96079.63;5083268;28;20273;-84
2023/01/07 01:52:55;;;;;;;2.13;1.93;;;;;;;10.85;69.49;96078.50;5067973;28;20277;-84
2023/01/07 01:55:27;;;;;;;2.10;1.90;;;;;;;10.82;69.67;96076.25;5095466;28;20957;-84
2023/01/07 01:57:57;;;;;;;1.90;1.80;;;;;;;10.84;69.61;96074.31;5088111;28;20203;-83
2023/01/07 02:00:24;;;;;;;2.20;2.00;;;;;;;10.80;69.71;96067.88;5082658;28;20200;-83
2023/01/07 02:02:53;;;;;;;2.30;2.10;;;;;;;10.79;69.88;96068.03;5075257;28;20635;-84
2023/01/07 02:05:20;;;;;;;2.93;2.03;;;;;;;10.81;70.02;96069.47;5075763;28;20205;-83
2023/01/07 02:07:47;;;;;;;1.90;1.70;;;;;;;10.82;70.13;96059.97;5089980;28;20613;-84
2023/01/07 02:10:17;;;;;;;2.10;1.90;;;;;;;10.80;70.02;96056.78;5094285;28;20227;-84
2023/01/07 02:12:54;;;;;;;2.20;2.00;;;;;;;10.81;69.75;96055.81;5095985;28;20269;-83
2023/01/07 02:15:30;;;;;;;2.17;2.00;;;;;;;10.80;70.18;96046.47;5083530;28;20496;-83
2023/01/07 02:18:10;;;;;;;2.13;1.93;;;;;;;10.78;69.91;96053.56;5077205;28;20208;-84
2023/01/07 02:20:50;;;;;;;2.37;2.17;;;;;;;10.82;69.76;96052.25;5095499;28;20192;-84
2023/01/07 02:23:55;;;;;;;2.40;2.20;;;;;;;10.78;69.88;96049.19;5091229;28;20208;-84
2023/01/07 02:27:00;;;;;;;2.20;2.03;;;;;;;10.80;69.82;96056.78;5050311;28;20216;-83
2023/01/07 02:30:09;;;;;;;2.50;2.30;;;;;;;10.81;69.89;96055.81;5069960;28;20200;-84
2023/01/07 02:32:52;;;;;;;2.80;2.10;;;;;;;10.79;69.62;96048.22;5078362;28;20231;-83
2023/01/07 02:35:34;;;;;;;2.30;2.10;;;;;;;10.81;69.56;96042.91;5074506;28;20224;-84
2023/01/07 02:38:11;;;;;;;2.00;1.90;;;;;;;10.74;69.83;96040.22;5088530;28;20274;-84
2023/01/07 02:40:47;;;;;;;2.53;2.33;;;;;;;10.78;70.07;96044.06;5095215;28;20195;-83
2023/01/07 02:43:21;;;;;;;2.60;2.40;;;;;;;10.78;69.99;96040.66;5078946;28;20281;-83
2023/01/07 02:45:54;;;;;;;4.27;2.17;;;;;;;10.78;69.98;96032.94;5074387;28;20254;-84
2023/01/07 02:48:22;;;;;;;2.57;2.37;;;;;;;10.77;70.20;96034.75;5090354;28;20207;-83
2023/01/07 02:50:49;;;;;;;4.50;1.90;;;;;;;10.77;69.87;96032.16;5078853;28;20282;-83
2023/01/07 02:53:19;;;;;;;2.40;2.20;;;;;;;10.77;70.04;96033.94;5054749;28;20229;-83
2023/01/07 02:55:56;;;;;;;2.30;2.10;;;;;;;10.75;69.82;96026.38;5061689;28;20235;-84
2023/01/07 02:58:48;;;;;;;2.87;2.20;;;;;;;10.75;70.04;96015.28;5071618;28;20757;-83
2023/01/07 03:01:37;;;;;;;3.33;2.17;;;;;;;10.77;69.86;96031.38;5086914;28;20201;-84
2023/01/07 03:04:24;;;;;;;3.20;2.30;;;;;;;10.73;70.32;96020.59;5074410;28;20201;-83
2023/01/07 03:07:05;;;;;;;2.40;2.20;;;;;;;10.76;70.15;96016.88;5085978;28;20192;-84
2023/01/07 03:09:41;;;;;;;2.30;2.10;;;;;;;10.77;69.52;96019.28;5093799;28;20225;-84
2023/01/07 03:12:14;;;;;;;2.40;2.20;;;;;;;10.72;69.48;96019.78;5080529;28;20231;-84
2023/01/07 03:14:45;;;;;;;2.60;2.40;;;;;;;10.64;69.22;96017.22;5081716;28;20196;-84
2023/01/07 03:17:17;;;;;;;2.03;1.93;;;;;;;10.65;69.58;96018.03;5094584;28;20196;-84
2023/01/07 03:19:50;;;;;;;2.50;2.30;;;;;;;10.63;69.15;96009.66;5078320;28;20246;-83
2023/01/07 03:22:20;;;;;;;2.27;2.07;;;;;;;10.65;69.15;96013.69;5080629;28;20212;-84
2023/01/07 03:24:51;;;;;;;2.37;2.00;;;;;;;10.60;69.29;96000.50;5092740;28;20200;-84
2023/01/07 03:27:19;;;;;;;2.00;1.90;;;;;;;10.55;69.33;96000.22;5083443;28;20197;-83
2023/01/07 03:29:47;;;;;;;2.40;2.10;;;;;;;10.52;69.34;95999.72;5073344;28;20282;-84
2023/01/07 03:32:16;;;;;;;2.20;2.00;;;;;;;10.54;69.73;96000.38;5073686;28;20216;-84
2023/01/07 03:34:44;;;;;;;2.00;1.90;;;;;;;10.56;69.49;95995.88;5085173;28;20200;-83
2023/01/07 03:37:15;;;;;;;2.40;2.20;;;;;;;10.56;69.20;95994.09;5094026;28;20200;-84
2023/01/07 03:39:43;;;;;;;2.30;2.10;;;;;;;10.58;69.31;95992.13;5074433;28;20201;-83
2023/01/07 03:44:55;;;;;;;2.10;2.00;;;;;;;10.58;69.41;95989.56;5053974;28;20655;-84
2023/01/07 03:47:23;;;;;;;2.97;2.20;;;;;;;10.59;69.21;95986.00;5081243;28;20196;-84
2023/01/07 03:49:49;;;;;;;2.80;2.43;;;;;;;10.54;69.33;95985.72;5090065;28;20670;-83
2023/01/07 03:52:17;;;;;;;2.80;2.10;;;;;;;10.58;69.18;95973.34;5067176;28;20222;-84
2023/01/07 03:54:43;;;;;;;2.33;2.13;;;;;;;10.58;69.16;95981.84;5082009;28;20246;-84
2023/01/07 03:57:10;;;;;;;2.40;2.20;;;;;;;10.54;69.04;95970.28;5092569;28;20208;-84
2023/01/07 03:59:36;;;;;;;2.50;2.30;;;;;;;10.46;69.03;95972.06;5086000;28;20193;-83
2023/01/07 04:02:02;;;;;;;2.60;2.10;;;;;;;10.45;68.93;95962.75;5084246;28;20212;-83
2023/01/07 04:04:31;;;;;;;2.63;2.43;;;;;;;10.39;69.03;95962.44;5081535;28;20200;-84
2023/01/07 04:06:57;;;;;;;2.93;2.40;;;;;;;10.36;69.43;95959.41;5083238;28;20200;-83
2023/01/07 04:09:25;;;;;;;2.67;2.40;;;;;;;10.34;69.16;95954.44;5092935;28;20618;-83
2023/01/07 04:11:51;;;;;;;2.47;2.27;;;;;;;10.37;69.00;95948.16;5083058;28;20220;-84
2023/01/07 04:14:18;;;;;;;2.30;2.10;;;;;;;10.33;68.81;95954.59;5073602;28;20204;-84
2023/01/07 04:16:44;;;;;;;2.23;2.07;;;;;;;10.35;69.18;95940.59;5080843;28;20204;-84
2023/01/07 04:19:11;;;;;;;2.67;2.33;;;;;;;10.41;68.95;95940.88;5092705;28;20203;-84
2023/01/07 04:21:37;;;;;;;2.70;2.50;;;;;;;10.41;68.97;95943.44;5086194;28;20193;-84
2023/01/07 04:24:04;;;;;;;3.23;2.40;;;;;;;10.42;69.28;95942.47;5072768;28;20205;-84
2023/01/07 04:26:32;;;;;;;2.40;2.20;;;;;;;10.33;69.02;95934.00;5071545;28;20215;-84
2023/01/07 04:28:59;;;;;;;3.20;2.90;;;;;;;10.35;69.44;95930.28;5072240;28;20197;-84
2023/01/07 04:31:25;;;;;;;2.67;2.43;;;;;;;10.39;69.08;95925.63;5072553;28;20710;-83
2023/01/07 04:33:52;;;;;;;2.70;2.40;;;;;;;10.42;69.51;95927.03;5067597;28;20234;-84
2023/01/07 04:36:18;;;;;;;2.80;2.60;;;;;;;10.44;69.35;95925.09;5072891;28;20189;-84
2023/01/07 04:38:45;;;;;;;2.83;2.53;;;;;;;10.33;69.08;95921.94;5072839;28;20196;-84
2023/01/07 04:41:11;;;;;;;2.30;2.10;;;;;;;10.28;69.42;95923.38;5074529;28;20201;-84
2023/01/07 04:43:39;;;;;;;2.63;2.13;;;;;;;10.21;69.70;95912.13;5093014;28;20219;-83
2023/01/07 04:46:06;;;;;;;2.30;2.10;;;;;;;10.11;69.88;95909.75;5091040;28;20334;-83
2023/01/07 04:48:32;;;;;;;2.30;2.10;;;;;;;10.13;69.85;95909.59;5069326;28;20209;-83
2023/01/07 04:50:59;;;;;;;2.27;2.07;;;;;;;10.21;69.04;95907.00;5072484;28;20254;-83
2023/01/07 04:53:26;;;;;;;2.07;1.97;;;;;;;10.20;68.54;95903.63;5072454;28;20319;-84
2023/01/07 04:55:52;;;;;;;2.53;2.33;;;;;;;10.10;68.84;95907.34;5088700;28;20253;-83
2023/01/07 04:58:19;;;;;;;2.30;2.10;;;;;;;10.05;69.42;95900.91;5053219;28;20217;-84
2023/01/07 05:00:47;;;;;;;2.33;2.13;;;;;;;10.02;69.54;95897.84;5084073;28;20200;-84
2023/01/07 05:03:13;;;;;;;2.10;1.90;;;;;;;10.00;69.64;95890.34;5092875;28;20238;-84
2023/01/07 05:05:39;;;;;;;1.90;1.80;;;;;;;10.00;69.67;95889.53;5078111;28;20208;-84
2023/01/07 05:08:06;;;;;;;2.60;2.30;;;;;;;10.02;69.68;95890.13;5078943;28;20196;-84
2023/01/07 05:10:33;;;;;;;2.00;1.90;;;;;;;10.02;68.92;95885.78;5093244;28;20193;-84
2023/01/07 05:12:59;;;;;;;2.20;2.00;;;;;;;10.01;68.94;95881.63;5087175;28;20755;-84
2023/01/07 05:15:25;;;;;;;2.13;1.93;;;;;;;9.92;69.50;95882.63;5072287;28;20258;-84
2023/01/07 05:17:53;;;;;;;2.17;2.07;;;;;;;9.91;69.29;95877.63;5089048;28;20613;-84
2023/01/07 05:20:19;;;;;;;2.23;2.03;;;;;;;9.90;69.34;95881.19;5086340;28;20196;-84
2023/01/07 05:22:46;;;;;;;2.33;2.13;;;;;;;9.98;69.22;95871.69;5072599;28;20229;-84
2023/01/07 05:25:12;;;;;;;2.50;2.10;;;;;;;10.03;69.06;95866.81;5075842;28;20192;-84
2023/01/07 05:27:39;;;;;;;3.20;1.80;;;;;;;10.02;69.15;95860.06;5091345;28;20562;-84
2023/01/07 05:30:06;;;;;;;2.20;2.00;;;;;;;10.03;68.91;95859.09;5091743;28;20266;-84
2023/01/07 05:32:33;;;;;;;2.37;2.17;;;;;;;9.98;69.07;95858.81;5071816;28;20656;-84
2023/01/07 05:35:00;;;;;;;1.90;1.70;;;;;;;9.96;68.85;95853.03;5080141;28;20196;-84
2023/01/07 05:37:27;;;;;;;1.90;1.80;;;;;;;9.99;68.43;95847.56;5095727;28;20204;-84
2023/01/07 05:39:53;;;;;;;2.20;1.97;;;;;;;9.96;68.67;95845.31;5074236;28;20197;-84
2023/01/07 05:42:20;;;;;;;2.10;1.93;;;;;;;9.94;68.64;95846.44;5075212;28;20686;-84
2023/01/07 05:44:46;;;;;;;2.20;2.03;;;;;;;9.86;68.98;95843.91;5073847;28;20205;-85
2023/01/07 05:47:12;;;;;;;2.33;1.90;;;;;;;9.85;68.87;95843.09;5074465;28;20197;-84
2023/01/07 05:49:39;;;;;;;1.93;1.83;;;;;;;9.87;69.39;95840.34;5082248;28;20394;-84
2023/01/07 05:52:06;;;;;;;2.07;1.90;;;;;;;9.84;68.89;95841.50;5078916;28;20274;-84
2023/01/07 05:54:33;;;;;;;2.03;1.83;;;;;;;9.85;69.01;95834.56;5081913;28;20188;-84
2023/01/07 05:56:59;;;;;;;2.17;1.97;;;;;;;9.72;69.01;95840.25;5095022;28;20204;-84
2023/01/07 05:59:26;;;;;;;2.47;1.90;;;;;;;9.73;68.92;95836.72;5091209;28;20619;-84
2023/01/07 06:01:52;;;;;;;2.37;2.17;;;;;;;9.70;69.24;95835.25;5073289;28;20215;-84
2023/01/07 06:04:19;;;;;;;2.10;2.00;;;;;;;9.73;68.81;95830.75;5076157;28;20195;-84
2023/01/07 06:06:45;;;;;;;2.30;1.70;;;;;;;9.67;68.67;95832.22;5075286;28;20201;-84
2023/01/07 06:09:13;;;;;;;2.00;1.90;;;;;;;9.67;68.71;95827.06;5075609;28;20684;-84
2023/01/07 06:11:39;;;;;;;1.93;1.80;;;;;;;9.65;68.93;95829.00;5074190;28;20224;-84
2023/01/07 06:14:06;;;;;;;1.93;1.83;;;;;;;9.63;68.83;95825.78;5074567;28;20196;-84
2023/01/07 06:16:32;;;;;;;1.93;1.80;;;;;;;9.48;68.73;95827.44;5076630;28;20636;-84
2023/01/07 06:18:58;;;;;;;2.00;1.90;;;;;;;9.50;69.19;95821.16;5074618;28;20197;-84
2023/01/07 06:21:25;;;;;;;1.90;1.80;;;;;;;9.47;69.39;95825.84;5074056;28;20197;-84
2023/01/07 06:23:51;;;;;;;2.80;2.07;;;;;;;9.49;69.12;95824.72;5075600;28;20196;-84
2023/01/07 06:26:19;;;;;;;1.77;1.67;;;;;;;9.48;69.11;95825.66;5082921;28;20207;-83
2023/01/07 06:28:45;;;;;;;1.93;1.83;;;;;;;9.46;69.24;95827.59;5094225;28;20199;-83
2023/01/07 06:31:12;;;;;;;2.23;2.03;;;;;;;9.47;69.13;95821.50;5081509;28;20197;-83
2023/01/07 06:33:39;;;;;;;3.00;2.03;;;;;;;9.44;68.72;95819.25;5073435;28;20216;-83
2023/01/07 06:36:06;;;;;;;2.27;2.07;;;;;;;9.44;69.28;95821.81;5094167;28;20211;-84
2023/01/07 06:38:33;;;;;;;2.30;1.87;;;;;;;9.42;69.01;95822.97;5102879;28;20207;-84
2023/01/07 06:41:00;;;;;;;2.23;1.77;;;;;;;9.35;69.32;95818.47;5083546;28;20213;-83
2023/01/07 06:43:28;;;;;;;2.13;1.97;;;;;;;9.33;69.24;95807.56;5086612;28;20212;-83
2023/01/07 06:45:55;;;;;;;2.93;2.07;;;;;;;9.21;69.72;95801.16;5084833;28;20532;-83
2023/01/07 06:48:21;;;;;;;2.30;2.10;;;;;;;9.12;70.04;95809.81;5083906;28;20269;-84
2023/01/07 06:50:48;;;;;;;2.37;2.17;;;;;;;9.11;70.14;95812.53;5086473;28;20208;-83
2023/01/07 06:53:14;;;;;;;2.00;1.90;;;;;;;9.14;70.24;95804.53;5084414;28;20221;-84
2023/01/07 06:55:40;;;;;;;2.50;2.30;;;;;;;9.05;70.07;95810.63;5102608;28;20207;-84
2023/01/07 06:58:07;;;;;;;2.30;2.10;;;;;;;8.89;70.95;95803.72;5106511;28;20196;-83
2023/01/07 07:00:34;;;;;;;3.10;2.03;;;;;;;8.87;71.28;95811.59;5082312;28;20688;-84
2023/01/07 07:03:01;;;;;;;2.50;2.30;;;;;;;8.81;71.09;95801.16;5078568;28;20212;-84
2023/01/07 07:05:28;;;;;;;2.00;1.90;;;;;;;8.88;71.10;95810.63;5094324;28;20695;-84
2023/01/07 07:07:54;;;;;;;2.40;2.20;;;;;;;8.91;70.91;95810.31;5089696;28;20197;-85
2023/01/07 07:10:21;;;;;;;2.60;2.30;;;;;;;8.90;70.90;95798.44;5060567;28;20192;-84
2023/01/07 07:12:47;;;;;;;2.40;2.20;;;;;;;8.94;70.69;95793.78;5077415;28;20225;-84
2023/01/07 07:15:13;;;;;;;3.73;2.37;;;;;;;8.96;70.66;95792.66;5078142;28;20200;-84
2023/01/07 07:17:41;;;;;;;2.90;2.67;;;;;;;8.94;70.81;95797.16;5096268;28;20210;-84
2023/01/07 07:20:09;;;;;;;3.10;2.43;;;;;;;8.92;70.93;95795.69;5095726;28;20200;-84
2023/01/07 07:22:35;;;;;;;2.50;2.30;;;;;;;8.91;70.91;95796.66;5075699;28;20250;-84
2023/01/07 07:25:02;;;;;;;2.50;2.30;;;;;;;8.87;70.83;95793.59;5075430;28;20200;-84
2023/01/07 07:27:28;;;;;;;2.90;2.70;;;;;;;8.83;70.93;95797.47;5075564;28;20193;-84
2023/01/07 07:29:55;;;;;;;2.50;2.30;;;;;;;8.80;71.45;95794.44;5075496;28;20209;-84
2023/01/07 07:32:21;;;;;;;2.53;2.33;;;;;;;8.80;71.21;95791.88;5087296;28;20220;-85
2023/01/07 07:34:49;;;;;;;2.80;2.60;;;;;;;8.78;71.06;95788.66;5085186;28;20283;-84
2023/01/07 07:37:15;;;;;;;2.53;2.33;;;;;;;8.76;71.55;95782.88;5074445;28;20258;-84
2023/01/07 07:39:42;;;;;;;2.57;2.37;;;;;;;8.71;71.21;95785.91;5083979;28;20193;-85
2023/01/07 07:42:08;;;;;;;3.03;2.83;;;;;;;8.65;71.76;95784.00;5089421;28;20722;-84
2023/01/07 07:44:35;;;;;;;3.33;2.30;;;;;;;8.52;72.07;95792.16;5070132;28;20208;-84
2023/01/07 07:47:01;;;;;;;2.77;2.57;;;;;;;8.44;72.37;95784.47;5074511;28;20192;-84
2023/01/07 07:49:27;;;;;;;2.70;2.50;;;;;;;8.28;73.14;95781.81;5073173;28;20201;-84
2023/01/07 07:51:55;;;;;;;2.60;2.30;;;;;;;8.26;73.15;95778.63;5074455;28;20418;-84
2023/01/07 07:54:21;;;;;;;2.73;2.53;;;;;;;8.22;73.40;95774.75;5074765;28;20668;-83
2023/01/07 07:56:48;;;;;;;3.17;2.60;;;;;;;8.30;73.59;95774.75;5074349;28;20199;-84
2023/01/07 07:59:14;;;;;;;3.47;2.23;;;;;;;8.50;73.25;95777.88;5086544;28;20200;-83
2023/01/07 08:01:41;;;;;;;2.47;2.23;;;;;;;8.70;72.49;95771.47;5085305;28;20196;-84
2023/01/07 08:04:07;;;;;;;2.37;2.17;;;;;;;8.81;72.05;95765.22;5074846;28;20193;-84
2023/01/07 08:06:34;;;;;;;2.47;2.27;;;;;;;8.86;71.12;95760.38;5078068;28;20189;-84
2023/01/07 08:09:02;;;;;;;2.30;2.10;;;;;;;8.77;71.47;95751.91;5073990;28;20193;-84
2023/01/07 08:11:28;;;;;;;43.53;32.50;;;;;;;8.87;71.28;95756.84;5084873;28;20196;-84
2023/01/07 08:13:55;;;;;;;10.97;8.57;;;;;;;8.97;70.98;95754.94;5095609;28;20246;-84
2023/01/07 08:16:21;;;;;;;3.53;2.80;;;;;;;9.02;70.29;95760.41;5086700;28;20197;-84
2023/01/07 08:18:47;;;;;;;2.50;2.30;;;;;;;9.03;69.87;95751.72;5074924;28;20208;-84
2023/01/07 08:21:14;;;;;;;2.70;2.50;;;;;;;9.13;69.85;95754.13;5079347;28;20211;-84
2023/01/07 08:23:44;;;;;;;2.47;2.27;;;;;;;9.15;69.05;95747.06;5084303;28;20216;-84
2023/01/07 08:26:12;;;;;;;3.23;2.40;;;;;;;9.20;68.94;95755.88;5073548;28;20699;-84
2023/01/07 08:28:39;;;;;;;2.50;2.30;;;;;;;9.13;68.92;95744.66;5080972;28;20196;-84
2023/01/07 08:31:07;;;;;;;2.50;2.30;;;;;;;9.23;68.71;95745.28;5095923;28;20745;-84
2023/01/07 08:33:36;;;;;;;2.53;2.33;;;;;;;9.41;67.83;95745.06;5079407;28;20220;-84
2023/01/07 08:36:07;;;;;;;2.77;2.47;;;;;;;9.60;67.55;95742.13;5077564;28;20237;-84
2023/01/07 08:38:34;;;;;;;2.67;2.47;;;;;;;9.76;66.59;95737.88;5078516;28;20604;-84
2023/01/07 08:41:03;;;;;;;2.77;2.57;;;;;;;9.77;65.08;95740.28;5094818;28;20200;-83
2023/01/07 08:43:32;;;;;;;3.93;2.37;;;;;;;9.70;65.53;95734.19;5091369;28;20224;-84
2023/01/07 08:46:00;;;;;;;4.63;2.50;;;;;;;9.85;65.52;95734.28;5075693;28;20208;-84
2023/01/07 08:48:27;;;;;;;2.77;2.53;;;;;;;9.92;64.39;95727.50;5076716;28;20638;-84
2023/01/07 08:50:54;;;;;;;3.50;2.40;;;;;;;9.79;63.58;95740.13;5088882;28;20227;-83
2023/01/07 08:53:21;;;;;;;2.53;2.33;;;;;;;9.72;64.24;95734.03;5076222;28;20221;-84
2023/01/07 08:55:49;;;;;;;4.03;3.57;;;;;;;9.70;63.96;95718.78;5095112;28;20196;-84
2023/01/07 08:58:16;;;;;;;5.63;4.40;;;;;;;9.82;63.21;95719.19;5094284;28;20236;-84
2023/01/07 09:00:44;;;;;;;2.73;2.53;;;;;;;9.73;62.41;95721.00;5074788;28;20251;-83
2023/01/07 09:03:10;;;;;;;3.13;2.43;;;;;;;9.91;62.92;95718.19;5076871;28;20220;-84
2023/01/07 09:05:37;;;;;;;2.27;2.13;;;;;;;9.90;61.67;95707.09;5097947;28;20596;-84
2023/01/07 09:08:03;;;;;;;2.73;2.40;;;;;;;10.05;62.20;95709.75;5098723;28;20196;-84
2023/01/07 09:10:30;;;;;;;3.80;2.23;;;;;;;10.30;61.99;95715.56;5081008;28;20201;-84
2023/01/07 09:12:57;;;;;;;2.43;2.23;;;;;;;10.41;60.91;95707.44;5078629;28;20225;-84
2023/01/07 09:15:26;;;;;;;2.27;2.07;;;;;;;10.45;60.40;95708.69;5094841;28;20216;-84
2023/01/07 09:17:54;;;;;;;2.50;2.30;;;;;;;10.31;59.97;95707.69;5098959;28;20784;-84
2023/01/07 09:20:20;;;;;;;2.43;2.23;;;;;;;10.41;60.17;95710.00;5083397;28;20205;-84
2023/01/07 09:22:50;;;;;;;2.60;2.40;;;;;;;10.44;59.92;95701.94;5077786;28;20209;-83
2023/01/07 09:25:16;;;;;;;2.33;2.13;;;;;;;10.58;59.66;95703.00;5081350;28;20676;-82
2023/01/07 09:27:44;;;;;;;2.40;2.20;;;;;;;10.83;58.58;95714.66;5090993;28;20212;-81
2023/01/07 09:30:11;;;;;;;2.40;2.20;;;;;;;11.05;58.37;95716.41;5088413;28;20208;-81
2023/01/07 09:32:38;;;;;;;2.40;2.20;;;;;;;11.10;58.58;95703.00;5081112;28;20236;-82
2023/01/07 09:35:07;;;;;;;3.60;2.40;;;;;;;11.27;58.51;95704.41;5099044;28;20196;-82
2023/01/07 09:37:33;;;;;;;5.43;2.43;;;;;;;11.53;57.48;95706.56;5099272;28;20216;-81
2023/01/07 09:40:00;;;;;;;2.90;2.60;;;;;;;11.60;56.35;95702.25;5094958;28;20219;-84
2023/01/07 09:42:41;;;;;;;2.67;2.47;;;;;;;11.66;56.40;95698.19;5077734;28;20224;-85
2023/01/07 09:45:15;;;;;;;2.63;2.20;;;;;;;11.58;55.83;95687.94;5088864;28;20206;-85
2023/01/07 09:47:44;;;;;;;2.47;2.27;;;;;;;11.60;56.33;95694.53;5075653;28;20208;-84
2023/01/07 09:50:19;;;;;;;2.50;2.30;;;;;;;11.65;55.90;95686.25;5078148;28;20227;-84
2023/01/07 09:52:50;;;;;;;6.13;5.40;;;;;;;11.70;56.88;95686.53;5076712;28;20228;-84
2023/01/07 09:55:20;;;;;;;2.53;2.10;;;;;;;11.86;55.74;95670.06;5095900;28;20196;-84
2023/01/07 09:57:47;;;;;;;2.50;2.30;;;;;;;11.90;55.46;95668.72;5097949;28;20215;-83
2023/01/07 10:00:20;;;;;;;2.33;2.20;;;;;;;11.81;55.46;95664.63;5077621;28;20768;-86
2023/01/07 10:03:05;;;;;;;2.33;2.00;;;;;;;11.64;56.52;95666.59;5074192;28;20550;-87
2023/01/07 10:05:47;;;;;;;2.53;2.33;;;;;;;11.32;56.66;95657.50;5071922;28;20208;-85
2023/01/07 10:08:26;;;;;;;2.67;2.47;;;;;;;10.88;58.20;95652.34;5077476;28;20207;-85
2023/01/07 10:11:03;;;;;;;2.70;2.50;;;;;;;10.89;58.74;95657.31;5092505;28;20206;-84
2023/01/07 10:13:52;;;;;;;2.60;2.40;;;;;;;11.32;58.40;95645.41;5088820;28;20220;-85
2023/01/07 10:16:27;;;;;;;2.60;2.40;;;;;;;11.72;57.14;95644.09;5075992;28;20204;-85
2023/01/07 10:19:01;;;;;;;3.37;2.90;;;;;;;11.83;55.74;95648.00;5085852;28;20352;-86
2023/01/07 10:21:43;;;;;;;2.53;2.33;;;;;;;11.99;55.63;95640.03;5094776;28;20200;-86
2023/01/07 10:24:20;;;;;;;3.30;3.00;;;;;;;11.93;55.65;95635.59;5079951;28;20280;-85
2023/01/07 10:26:49;;;;;;;2.63;2.43;;;;;;;11.99;56.16;95628.91;5074037;28;20215;-85
2023/01/07 10:29:22;;;;;;;2.50;2.30;;;;;;;12.07;55.30;95627.00;5083406;28;20196;-85
2023/01/07 10:31:53;;;;;;;2.53;2.33;;;;;;;11.91;55.29;95626.47;5084406;28;20287;-84
2023/01/07 10:34:24;;;;;;;2.33;2.13;;;;;;;11.75;55.72;95620.50;5074357;28;20569;-85
2023/01/07 10:37:01;;;;;;;2.20;2.00;;;;;;;11.71;55.95;95616.72;5086426;28;20211;-84
2023/01/07 10:39:39;;;;;;;2.10;1.90;;;;;;;11.73;56.22;95612.16;5095234;28;20613;-84
2023/01/07 10:42:13;;;;;;;3.43;2.30;;;;;;;11.74;56.30;95600.84;5083937;28;20221;-84
2023/01/07 10:45:02;;;;;;;2.60;2.20;;;;;;;11.67;56.32;95594.84;5075365;28;20192;-84
2023/01/07 10:47:44;;;;;;;2.83;2.50;;;;;;;11.56;56.44;95599.66;5090485;28;20192;-84
2023/01/07 10:50:29;;;;;;;2.70;2.50;;;;;;;11.78;56.76;95596.16;5086671;28;20197;-84
2023/01/07 10:53:07;;;;;;;2.27;2.17;;;;;;;11.85;56.10;95585.91;5060781;28;20715;-84
2023/01/07 10:55:47;;;;;;;2.27;1.93;;;;;;;11.77;55.98;95585.03;5095414;28;20207;-84
2023/01/07 10:58:13;;;;;;;2.33;2.13;;;;;;;11.73;56.25;95581.22;5092675;28;20226;-84
2023/01/07 11:00:41;;;;;;;2.50;2.30;;;;;;;11.69;56.28;95579.19;5076381;28;20250;-84
2023/01/07 11:03:18;;;;;;;2.43;2.23;;;;;;;11.68;56.25;95577.59;5079943;28;20738;-84
2023/01/07 11:05:46;;;;;;;2.73;2.53;;;;;;;11.62;56.65;95575.72;5096778;28;20613;-84
2023/01/07 11:08:25;;;;;;;2.60;2.40;;;;;;;11.51;56.70;95571.84;5091434;28;20884;-84
2023/01/07 11:10:51;;;;;;;3.40;2.80;;;;;;;11.61;56.63;95566.38;5075402;28;20208;-84
2023/01/07 11:13:22;;;;;;;2.57;2.37;;;;;;;11.69;57.50;95564.50;5080037;28;20216;-84
2023/01/07 11:15:52;;;;;;;2.23;2.03;;;;;;;11.75;56.74;95566.31;5095217;28;20249;-84
2023/01/07 11:18:21;;;;;;;2.37;1.90;;;;;;;11.75;57.04;95552.63;5089598;28;20196;-84
2023/01/07 11:20:49;;;;;;;2.40;2.17;;;;;;;12.00;57.16;95542.78;5075369;28;20201;-84
2023/01/07 11:23:31;;;;;;;3.20;2.17;;;;;;;12.05;56.21;95538.66;5067869;28;20216;-84
2023/01/07 11:26:16;;;;;;;1.97;1.80;;;;;;;11.98;55.99;95534.41;5072982;28;20226;-85
2023/01/07 11:28:49;;;;;;;3.37;2.20;;;;;;;11.85;55.74;95529.94;5082519;28;20214;-84
2023/01/07 11:31:16;;;;;;;2.73;1.97;;;;;;;11.83;56.36;95521.59;5094553;28;20249;-84
2023/01/07 11:33:47;;;;;;;1.80;1.70;;;;;;;11.80;56.14;95514.22;5084793;28;20224;-84
2023/01/07 11:36:14;;;;;;;1.90;1.80;;;;;;;11.89;56.32;95513.13;5094459;28;20260;-84
2023/01/07 11:38:42;;;;;;;2.07;1.97;;;;;;;11.91;56.39;95515.53;5075793;28;20232;-84
2023/01/07 11:41:21;;;;;;;2.43;2.23;;;;;;;11.84;55.55;95509.50;5078316;28;20188;-84
2023/01/07 11:43:49;;;;;;;1.90;1.80;;;;;;;11.88;55.49;95505.56;5093697;28;20208;-84
2023/01/07 11:46:16;;;;;;;1.90;1.80;;;;;;;12.00;55.13;95504.88;5083719;28;20196;-84
2023/01/07 11:48:51;;;;;;;2.20;2.00;;;;;;;12.10;55.25;95500.19;5074533;28;20857;-84
2023/01/07 11:51:19;;;;;;;2.07;1.77;;;;;;;12.13;54.23;95493.03;5073671;28;20196;-84